createdAt,value
2017-07-11T00:00:12.201Z,23.47
2017-07-11T00:02:39.517Z,26.90
2017-07-11T00:05:06.829Z,26.10
2017-07-11T00:07:34.165Z,20.67
2017-07-11T00:10:01.466Z,22.07
2017-07-11T00:12:28.790Z,22.37
2017-07-11T00:14:56.102Z,22.00
2017-07-11T00:17:23.471Z,22.00
2017-07-11T00:19:50.785Z,24.73
2017-07-11T00:22:18.141Z,20.90
2017-07-11T00:24:45.459Z,23.63
2017-07-11T00:27:12.757Z,21.50
2017-07-11T00:29:40.107Z,25.53
2017-07-11T00:32:07.417Z,22.90
2017-07-11T00:34:34.746Z,36.87
2017-07-11T00:37:02.071Z,44.27
2017-07-11T00:39:29.395Z,23.43
2017-07-11T00:41:56.720Z,21.83
2017-07-11T00:44:24.015Z,20.60
2017-07-11T00:46:51.368Z,17.93
2017-07-11T00:49:18.656Z,21.37
2017-07-11T00:51:45.982Z,19.40
2017-07-11T00:54:13.286Z,25.40
2017-07-11T00:56:40.597Z,22.90
2017-07-11T00:59:07.956Z,20.43
2017-07-11T01:01:35.259Z,19.83
2017-07-11T01:04:02.640Z,19.50
2017-07-11T01:06:29.949Z,20.47
2017-07-11T01:08:57.292Z,21.67
2017-07-11T01:11:25.573Z,19.10
2017-07-11T01:13:52.915Z,17.23
2017-07-11T01:16:20.288Z,17.20
2017-07-11T01:18:47.576Z,18.43
2017-07-11T01:21:14.896Z,23.83
2017-07-11T01:23:42.204Z,22.43
2017-07-11T01:26:09.548Z,31.00
2017-07-11T01:28:37.249Z,21.80
2017-07-11T01:31:05.523Z,17.53
2017-07-11T01:33:32.890Z,20.00
2017-07-11T01:36:00.206Z,19.60
2017-07-11T01:38:27.552Z,21.50
2017-07-11T01:40:54.891Z,26.17
2017-07-11T01:43:22.261Z,23.23
2017-07-11T01:45:49.582Z,19.47
2017-07-11T01:48:16.917Z,20.13
2017-07-11T01:50:44.243Z,20.53
2017-07-11T01:53:11.594Z,19.87
2017-07-11T01:55:38.931Z,26.13
2017-07-11T01:58:06.275Z,19.37
2017-07-11T02:00:33.679Z,19.53
2017-07-11T02:03:00.999Z,22.73
2017-07-11T02:05:28.296Z,15.37
2017-07-11T02:07:56.327Z,20.97
2017-07-11T02:10:23.651Z,16.17
2017-07-11T02:12:50.983Z,17.33
2017-07-11T02:15:18.299Z,17.90
2017-07-11T02:17:45.657Z,19.50
2017-07-11T02:20:12.960Z,20.90
2017-07-11T02:22:40.304Z,14.43
2017-07-11T02:25:07.693Z,16.47
2017-07-11T02:27:34.973Z,16.30
2017-07-11T02:30:02.294Z,18.20
2017-07-11T02:32:29.601Z,15.50
2017-07-11T02:34:56.968Z,19.10
2017-07-11T02:37:24.273Z,18.77
2017-07-11T02:39:51.591Z,17.30
2017-07-11T02:42:18.962Z,16.00
2017-07-11T02:44:46.264Z,15.47
2017-07-11T02:47:13.949Z,19.67
2017-07-11T02:49:41.249Z,16.43
2017-07-11T02:52:08.578Z,17.07
2017-07-11T02:54:35.942Z,20.13
2017-07-11T02:57:03.343Z,17.93
2017-07-11T02:59:30.649Z,18.87
2017-07-11T03:01:57.966Z,19.60
2017-07-11T03:04:25.325Z,22.40
2017-07-11T03:06:52.648Z,17.60
2017-07-11T03:09:20.041Z,22.60
2017-07-11T03:11:47.340Z,16.43
2017-07-11T03:14:14.665Z,15.80
2017-07-11T03:16:41.987Z,14.73
2017-07-11T03:19:09.291Z,15.43
2017-07-11T03:21:36.606Z,20.30
2017-07-11T03:24:03.933Z,14.50
2017-07-11T03:26:31.312Z,13.23
2017-07-11T03:28:58.631Z,14.43
2017-07-11T03:31:25.957Z,12.07
2017-07-11T03:33:53.310Z,16.37
2017-07-11T03:36:20.629Z,11.90
2017-07-11T03:38:47.958Z,13.10
2017-07-11T03:41:15.265Z,15.97
2017-07-11T03:43:42.599Z,14.60
2017-07-11T03:46:09.906Z,16.20
2017-07-11T03:48:37.647Z,11.90
2017-07-11T03:51:05.925Z,12.70
2017-07-11T03:53:33.252Z,12.80
2017-07-11T03:56:00.577Z,13.90
2017-07-11T03:58:27.876Z,12.97
2017-07-11T04:00:55.193Z,14.30
2017-07-11T04:03:22.523Z,15.23
2017-07-11T04:05:49.902Z,14.90
2017-07-11T04:08:17.221Z,12.23
2017-07-11T04:10:44.544Z,11.93
2017-07-11T04:13:11.903Z,12.80
2017-07-11T04:15:39.224Z,13.13
2017-07-11T04:18:06.578Z,11.40
2017-07-11T04:20:34.100Z,14.63
2017-07-11T04:23:01.603Z,17.83
2017-07-11T04:25:28.911Z,12.10
2017-07-11T04:27:56.218Z,15.33
2017-07-11T04:30:23.542Z,17.57
2017-07-11T04:32:50.832Z,13.13
2017-07-11T04:35:18.180Z,14.20
2017-07-11T04:37:45.486Z,16.40
2017-07-11T04:40:12.799Z,14.37
2017-07-11T04:42:40.106Z,12.67
2017-07-11T04:45:07.413Z,12.20
2017-07-11T04:47:35.187Z,17.13
2017-07-11T04:50:02.495Z,22.87
2017-07-11T04:52:29.832Z,16.30
2017-07-11T04:54:57.133Z,16.40
2017-07-11T04:57:24.487Z,16.03
2017-07-11T04:59:51.771Z,13.47
2017-07-11T05:02:19.182Z,13.57
2017-07-11T05:04:46.478Z,13.30
2017-07-11T05:07:13.802Z,13.60
2017-07-11T05:09:41.143Z,14.47
2017-07-11T05:12:08.479Z,13.07
2017-07-11T05:14:35.835Z,13.00
2017-07-11T05:17:03.154Z,15.40
2017-07-11T05:19:30.486Z,13.50
2017-07-11T05:21:57.780Z,11.23
2017-07-11T05:24:25.080Z,13.93
2017-07-11T05:26:52.397Z,15.30
2017-07-11T05:29:19.706Z,17.87
2017-07-11T05:31:47.080Z,16.17
2017-07-11T05:34:14.393Z,13.57
2017-07-11T05:36:41.719Z,16.13
2017-07-11T05:39:09.067Z,14.33
2017-07-11T05:41:36.376Z,15.13
2017-07-11T05:44:03.752Z,14.07
2017-07-11T05:46:31.070Z,15.00
2017-07-11T05:48:58.464Z,17.93
2017-07-11T05:51:25.752Z,16.70
2017-07-11T05:53:53.072Z,15.43
2017-07-11T05:56:20.442Z,16.10
2017-07-11T05:58:47.752Z,21.03
2017-07-11T06:01:15.067Z,19.10
2017-07-11T06:03:42.381Z,17.33
2017-07-11T06:06:09.929Z,16.70
2017-07-11T06:08:37.264Z,17.30
2017-07-11T06:11:04.594Z,16.20
2017-07-11T06:13:32.274Z,19.40
2017-07-11T06:15:59.564Z,18.43
2017-07-11T06:18:26.964Z,19.90
2017-07-11T06:20:54.228Z,19.37
2017-07-11T06:23:21.561Z,21.47
2017-07-11T06:25:48.921Z,18.80
2017-07-11T06:28:16.299Z,17.53
2017-07-11T06:30:43.606Z,19.83
2017-07-11T06:33:10.956Z,19.10
2017-07-11T06:35:38.322Z,18.17
2017-07-11T06:38:05.641Z,16.10
2017-07-11T06:40:32.989Z,19.10
2017-07-11T06:43:00.314Z,18.43
2017-07-11T06:45:27.685Z,17.00
2017-07-11T06:47:54.994Z,17.47
2017-07-11T06:50:22.334Z,16.70
2017-07-11T06:52:49.720Z,20.30
2017-07-11T06:55:17.033Z,16.60
2017-07-11T06:57:44.387Z,20.90
2017-07-11T07:00:11.698Z,22.63
2017-07-11T07:02:39.048Z,18.07
2017-07-11T07:05:06.398Z,16.97
2017-07-11T07:07:33.728Z,21.23
2017-07-11T07:10:01.110Z,18.00
2017-07-11T07:12:28.422Z,17.00
2017-07-11T07:14:55.721Z,16.93
2017-07-11T07:17:23.209Z,14.63
2017-07-11T07:19:50.536Z,20.60
2017-07-11T07:22:17.876Z,18.13
2017-07-11T07:24:45.180Z,13.23
2017-07-11T07:27:12.535Z,18.50
2017-07-11T07:29:39.993Z,15.10
2017-07-11T07:32:07.296Z,13.10
2017-07-11T07:34:34.609Z,13.10
2017-07-11T07:37:01.908Z,12.30
2017-07-11T07:39:29.232Z,10.53
2017-07-11T07:41:56.538Z,12.57
2017-07-11T07:44:24.191Z,9.17
2017-07-11T07:46:51.504Z,12.30
2017-07-11T07:49:18.871Z,14.00
2017-07-11T07:51:46.173Z,12.23
2017-07-11T07:54:13.467Z,9.37
2017-07-11T07:56:40.783Z,10.40
2017-07-11T07:59:08.076Z,9.00
2017-07-11T08:01:35.415Z,7.20
2017-07-11T08:04:02.715Z,7.63
2017-07-11T08:06:30.022Z,8.47
2017-07-11T08:08:57.323Z,7.60
2017-07-11T08:11:24.629Z,7.30
2017-07-11T08:13:51.947Z,7.80
2017-07-11T08:16:19.262Z,8.20
2017-07-11T08:18:46.609Z,8.17
2017-07-11T08:21:13.897Z,6.70
2017-07-11T08:23:41.191Z,6.53
2017-07-11T08:26:08.513Z,8.63
2017-07-11T08:28:35.827Z,7.37
2017-07-11T08:31:03.477Z,8.27
2017-07-11T08:33:30.769Z,7.93
2017-07-11T08:35:58.119Z,9.60
2017-07-11T08:38:25.608Z,9.83
2017-07-11T08:40:52.909Z,9.03
2017-07-11T08:43:20.246Z,8.50
2017-07-11T08:45:47.606Z,11.23
2017-07-11T08:48:15.046Z,8.93
2017-07-11T08:50:42.344Z,6.07
2017-07-11T08:53:09.675Z,7.60
2017-07-11T08:55:36.993Z,9.97
2017-07-11T08:58:04.296Z,10.90
2017-07-11T09:00:31.666Z,10.63
2017-07-11T09:02:58.982Z,7.87
2017-07-11T09:05:26.304Z,7.10
2017-07-11T09:07:53.691Z,7.90
2017-07-11T09:10:20.978Z,7.27
2017-07-11T09:12:48.287Z,7.60
2017-07-11T09:15:15.606Z,7.87
2017-07-11T09:17:42.931Z,11.80
2017-07-11T09:20:10.249Z,8.30
2017-07-11T09:22:37.572Z,9.90
2017-07-11T09:25:04.877Z,8.50
2017-07-11T09:27:32.183Z,5.60
2017-07-11T09:29:59.527Z,7.23
2017-07-11T09:32:30.193Z,8.23
2017-07-11T09:34:57.509Z,5.87
2017-07-11T09:37:24.814Z,5.73
2017-07-11T09:39:52.166Z,6.67
2017-07-11T09:42:19.527Z,8.17
2017-07-11T09:44:46.846Z,9.70
2017-07-11T09:47:14.176Z,6.60
2017-07-11T09:49:41.504Z,10.27
2017-07-11T09:52:08.829Z,8.00
2017-07-11T09:54:36.153Z,7.47
2017-07-11T09:57:03.483Z,7.70
2017-07-11T09:59:31.579Z,6.57
2017-07-11T10:01:58.904Z,7.50
2017-07-11T10:04:26.228Z,6.80
2017-07-11T10:06:53.532Z,7.63
2017-07-11T10:09:20.920Z,6.00
2017-07-11T10:11:48.227Z,7.90
2017-07-11T10:14:15.533Z,6.20
2017-07-11T10:16:42.868Z,6.23
2017-07-11T10:19:10.224Z,6.80
2017-07-11T10:21:37.558Z,6.33
2017-07-11T10:24:04.865Z,6.73
2017-07-11T10:26:32.164Z,6.50
2017-07-11T10:28:59.462Z,5.57
2017-07-11T10:31:26.757Z,6.87
2017-07-11T10:33:54.402Z,9.73
2017-07-11T10:36:21.709Z,6.10
2017-07-11T10:38:49.021Z,5.97
2017-07-11T10:41:16.325Z,8.07
2017-07-11T10:43:43.636Z,4.37
2017-07-11T10:46:11.835Z,5.73
2017-07-11T10:48:39.216Z,10.23
2017-07-11T10:51:06.513Z,7.70
2017-07-11T10:53:33.824Z,5.23
2017-07-11T10:56:01.149Z,5.80
2017-07-11T10:58:28.437Z,6.50
2017-07-11T11:00:56.021Z,6.40
2017-07-11T11:03:23.320Z,6.80
2017-07-11T11:05:50.679Z,5.87
2017-07-11T11:08:18.003Z,7.00
2017-07-11T11:10:45.332Z,6.00
2017-07-11T11:13:12.643Z,6.57
2017-07-11T11:15:39.955Z,8.40
2017-07-11T11:18:07.246Z,6.20
2017-07-11T11:20:34.578Z,6.90
2017-07-11T11:23:01.890Z,7.17
2017-07-11T11:25:29.193Z,8.03
2017-07-11T11:27:56.528Z,6.40
2017-07-11T11:30:23.836Z,8.93
2017-07-11T11:32:51.186Z,6.27
2017-07-11T11:35:18.577Z,7.50
2017-07-11T11:37:45.884Z,8.20
2017-07-11T11:40:13.269Z,6.77
2017-07-11T11:42:40.591Z,6.10
2017-07-11T11:45:07.899Z,6.30
2017-07-11T11:47:35.579Z,7.03
2017-07-11T11:50:04.181Z,5.50
2017-07-11T11:52:31.498Z,5.87
2017-07-11T11:54:58.789Z,7.23
2017-07-11T11:57:26.146Z,8.90
2017-07-11T11:59:53.464Z,6.73
2017-07-11T12:02:20.779Z,7.43
2017-07-11T12:04:48.080Z,6.60
2017-07-11T12:07:15.411Z,7.67
2017-07-11T12:09:42.765Z,7.83
2017-07-11T12:12:10.065Z,6.67
2017-07-11T12:14:37.373Z,6.70
2017-07-11T12:17:04.687Z,13.43
2017-07-11T12:19:32.007Z,7.47
2017-07-11T12:21:59.327Z,8.00
2017-07-11T12:24:26.625Z,7.20
2017-07-11T12:26:54.115Z,7.40
2017-07-11T12:29:21.455Z,7.90
2017-07-11T12:31:48.747Z,8.00
2017-07-11T12:34:16.049Z,7.80
2017-07-11T12:36:43.407Z,8.80
2017-07-11T12:39:10.932Z,7.50
2017-07-11T12:41:38.262Z,9.37
2017-07-11T12:44:05.719Z,7.30
2017-07-11T12:46:33.068Z,7.70
2017-07-11T12:49:00.420Z,9.27
2017-07-11T12:51:27.731Z,7.50
2017-07-11T12:53:55.040Z,7.97
2017-07-11T12:56:22.354Z,7.83
2017-07-11T12:58:49.653Z,8.13
2017-07-11T13:01:16.987Z,10.30
2017-07-11T13:03:44.285Z,8.50
2017-07-11T13:06:11.594Z,7.70
2017-07-11T13:08:38.915Z,8.80
2017-07-11T13:11:06.231Z,9.00
2017-07-11T13:13:33.575Z,8.83
2017-07-11T13:16:00.881Z,13.60
2017-07-11T13:18:28.172Z,13.10
2017-07-11T13:20:55.521Z,10.77
2017-07-11T13:23:22.824Z,10.40
2017-07-11T13:25:50.159Z,9.37
2017-07-11T13:28:17.464Z,11.63
2017-07-11T13:30:44.789Z,9.50
2017-07-11T13:33:12.133Z,12.47
2017-07-11T13:35:39.482Z,11.07
2017-07-11T13:38:07.141Z,10.00
2017-07-11T13:40:35.863Z,10.53
2017-07-11T13:43:03.198Z,9.70
2017-07-11T13:45:30.497Z,11.77
2017-07-11T13:47:57.815Z,14.33
2017-07-11T13:50:25.155Z,9.67
2017-07-11T13:52:52.515Z,12.00
2017-07-11T13:55:19.820Z,11.10
2017-07-11T13:57:47.264Z,10.70
2017-07-11T14:00:14.586Z,14.40
2017-07-11T14:02:41.979Z,12.13
2017-07-11T14:05:09.297Z,11.17
2017-07-11T14:07:36.632Z,15.63
2017-07-11T14:10:04.011Z,13.47
2017-07-11T14:12:31.387Z,13.77
2017-07-11T14:14:58.726Z,13.57
2017-07-11T14:17:26.030Z,12.97
2017-07-11T14:19:53.376Z,14.10
2017-07-11T14:22:20.703Z,17.33
2017-07-11T14:24:48.064Z,21.60
2017-07-11T14:27:15.396Z,20.10
2017-07-11T14:29:42.733Z,18.80
2017-07-11T14:32:10.062Z,24.17
2017-07-11T14:34:37.397Z,16.20
2017-07-11T14:37:04.721Z,12.10
2017-07-11T14:39:32.021Z,17.53
2017-07-11T14:41:59.339Z,12.47
2017-07-11T14:44:26.659Z,10.50
2017-07-11T14:46:54.010Z,10.77
2017-07-11T14:49:21.345Z,9.80
2017-07-11T14:51:48.715Z,9.27
2017-07-11T14:54:16.018Z,13.37
2017-07-11T14:56:43.330Z,9.13
2017-07-11T14:59:10.626Z,8.23
2017-07-11T15:01:37.945Z,9.80
2017-07-11T15:04:05.265Z,6.27
2017-07-11T15:06:32.576Z,6.60
2017-07-11T15:08:59.870Z,5.90
2017-07-11T15:11:27.203Z,7.00
2017-07-11T15:13:54.520Z,6.30
2017-07-11T15:16:21.817Z,5.90
2017-07-11T15:18:49.114Z,7.00
2017-07-11T15:21:16.417Z,6.73
2017-07-11T15:23:43.725Z,6.70
2017-07-11T15:26:11.047Z,6.60
2017-07-11T15:28:38.864Z,7.43
2017-07-11T15:31:06.175Z,6.82
2017-07-11T15:33:33.803Z,7.03
2017-07-11T15:36:01.132Z,7.47
2017-07-11T15:38:28.475Z,7.90
2017-07-11T15:40:56.126Z,7.75
2017-07-11T15:43:23.475Z,8.38
2017-07-11T15:45:50.801Z,8.70
2017-07-11T15:48:18.112Z,9.17
2017-07-11T15:50:45.417Z,9.10
2017-07-11T15:53:12.728Z,9.70
2017-07-11T15:55:40.088Z,9.80
2017-07-11T15:58:07.410Z,9.67
2017-07-11T16:00:34.719Z,10.80
2017-07-11T16:03:02.023Z,10.17
2017-07-11T16:05:29.357Z,10.63
2017-07-11T16:07:56.665Z,10.30
2017-07-11T16:10:24.036Z,10.03
2017-07-11T16:12:51.352Z,10.30
2017-07-11T16:15:18.693Z,11.40
2017-07-11T16:17:46.038Z,11.87
2017-07-11T16:20:13.379Z,14.40
2017-07-11T16:22:40.752Z,12.57
2017-07-11T16:25:08.057Z,12.33
2017-07-11T16:27:35.422Z,11.80
2017-07-11T16:30:02.745Z,11.57
2017-07-11T16:32:31.058Z,11.30
2017-07-11T16:34:58.758Z,11.40
2017-07-11T16:37:26.105Z,10.87
2017-07-11T16:39:53.462Z,11.33
2017-07-11T16:42:20.789Z,11.10
2017-07-11T16:44:48.145Z,14.67
2017-07-11T16:47:15.489Z,11.43
2017-07-11T16:49:42.810Z,11.70
2017-07-11T16:52:10.256Z,13.27
2017-07-11T16:54:37.609Z,13.00
2017-07-11T16:57:05.197Z,12.70
2017-07-11T16:59:32.540Z,11.33
2017-07-11T17:01:59.881Z,11.63
2017-07-11T17:04:27.187Z,11.03
2017-07-11T17:06:54.522Z,10.57
2017-07-11T17:09:21.856Z,10.57
2017-07-11T17:11:49.175Z,11.20
2017-07-11T17:14:16.524Z,9.90
2017-07-11T17:16:43.861Z,10.07
2017-07-11T17:19:11.279Z,11.10
2017-07-11T17:21:38.573Z,10.00
2017-07-11T17:24:06.211Z,10.87
2017-07-11T17:26:33.546Z,11.87
2017-07-11T17:29:00.886Z,10.33
2017-07-11T17:31:28.218Z,10.20
2017-07-11T17:33:55.566Z,11.00
2017-07-11T17:36:22.897Z,11.60
2017-07-11T17:38:51.251Z,11.10
2017-07-11T17:41:18.581Z,12.33
2017-07-11T17:43:45.890Z,12.33
2017-07-11T17:46:13.222Z,11.50
2017-07-11T17:48:40.820Z,11.63
2017-07-11T17:51:08.143Z,11.90
2017-07-11T17:53:35.455Z,12.70
2017-07-11T17:56:02.772Z,13.63
2017-07-11T17:58:30.089Z,15.07
2017-07-11T18:00:57.470Z,11.80
2017-07-11T18:03:24.782Z,12.43
2017-07-11T18:05:52.137Z,17.40
2017-07-11T18:08:19.567Z,15.17
2017-07-11T18:10:46.918Z,14.00
2017-07-11T18:13:14.216Z,13.20
2017-07-11T18:15:41.585Z,13.33
2017-07-11T18:18:08.975Z,12.70
2017-07-11T18:20:36.260Z,14.07
2017-07-11T18:23:03.685Z,12.30
2017-07-11T18:25:30.982Z,13.03
2017-07-11T18:27:58.304Z,12.57
2017-07-11T18:30:25.634Z,14.50
2017-07-11T18:32:52.998Z,14.10
2017-07-11T18:35:20.322Z,19.77
2017-07-11T18:37:47.682Z,14.33
2017-07-11T18:40:14.994Z,16.10
2017-07-11T18:42:42.322Z,16.50
2017-07-11T18:45:09.631Z,18.23
2017-07-11T18:47:36.953Z,17.40
2017-07-11T18:50:04.304Z,15.90
2017-07-11T18:52:31.620Z,16.90
2017-07-11T18:54:58.991Z,16.80
2017-07-11T18:57:26.290Z,16.97
2017-07-11T18:59:53.652Z,16.90
2017-07-11T19:02:20.978Z,15.67
2017-07-11T19:04:48.303Z,19.70
2017-07-11T19:07:15.609Z,18.83
2017-07-11T19:09:42.942Z,17.93
2017-07-11T19:12:10.260Z,17.77
2017-07-11T19:14:37.577Z,19.03
2017-07-11T19:17:04.909Z,22.50
2017-07-11T19:19:32.262Z,20.23
2017-07-11T19:21:59.619Z,20.83
2017-07-11T19:24:26.951Z,20.80
2017-07-11T19:26:54.293Z,23.17
2017-07-11T19:29:21.619Z,20.83
2017-07-11T19:31:49.601Z,23.63
2017-07-11T19:34:16.939Z,22.80
2017-07-11T19:36:44.269Z,21.63
2017-07-11T19:39:11.589Z,24.43
2017-07-11T19:41:39.019Z,21.40
2017-07-11T19:44:06.326Z,20.40
2017-07-11T19:46:33.640Z,21.27
2017-07-11T19:49:01.266Z,21.60
2017-07-11T19:51:29.547Z,24.67
2017-07-11T19:53:56.880Z,28.43
2017-07-11T19:56:24.258Z,18.93
2017-07-11T19:58:51.562Z,21.07
2017-07-11T20:01:18.873Z,21.40
2017-07-11T20:03:46.191Z,20.40
2017-07-11T20:06:13.512Z,24.43
2017-07-11T20:08:41.059Z,20.90
2017-07-11T20:11:08.374Z,23.40
2017-07-11T20:13:35.709Z,25.10
2017-07-11T20:16:03.056Z,25.33
2017-07-11T20:18:30.434Z,27.60
2017-07-11T20:20:57.754Z,24.30
2017-07-11T20:23:25.103Z,27.17
2017-07-11T20:25:52.467Z,26.10
2017-07-11T20:28:19.791Z,27.73
2017-07-11T20:30:47.111Z,24.30
2017-07-11T20:33:14.434Z,29.20
2017-07-11T20:35:41.792Z,27.97
2017-07-11T20:38:09.121Z,25.20
2017-07-11T20:40:36.504Z,27.17
2017-07-11T20:43:04.125Z,26.80
2017-07-11T20:45:31.793Z,29.23
2017-07-11T20:47:59.097Z,26.33
2017-07-11T20:50:26.540Z,26.63
2017-07-11T20:52:53.918Z,27.23
2017-07-11T20:55:21.262Z,29.33
2017-07-11T20:57:48.621Z,26.13
2017-07-11T21:00:15.963Z,29.17
2017-07-11T21:02:43.282Z,29.37
2017-07-11T21:05:10.683Z,29.77
2017-07-11T21:07:37.992Z,27.30
2017-07-11T21:10:05.304Z,21.40
2017-07-11T21:12:32.637Z,22.67
2017-07-11T21:14:59.964Z,19.67
2017-07-11T21:17:27.321Z,20.10
2017-07-11T21:19:54.629Z,21.30
2017-07-11T21:22:21.946Z,23.83
2017-07-11T21:24:49.253Z,19.93
2017-07-11T21:27:16.583Z,23.97
2017-07-11T21:29:43.957Z,24.20
2017-07-11T21:32:11.282Z,21.93
2017-07-11T21:34:38.571Z,20.00
2017-07-11T21:37:05.906Z,19.40
2017-07-11T21:39:33.201Z,23.20
2017-07-11T21:42:00.554Z,19.97
2017-07-11T21:44:27.879Z,20.90
2017-07-11T21:46:55.189Z,20.87
2017-07-11T21:49:22.523Z,18.30
2017-07-11T21:51:49.906Z,21.03
2017-07-11T21:54:17.253Z,22.93
2017-07-11T21:56:46.202Z,20.50
2017-07-11T21:59:13.549Z,23.20
2017-07-11T22:01:40.875Z,19.27
2017-07-11T22:04:08.233Z,21.33
2017-07-11T22:06:35.567Z,22.10
2017-07-11T22:09:02.927Z,25.83
2017-07-11T22:11:30.239Z,27.30
2017-07-11T22:13:57.589Z,24.20
2017-07-11T22:16:24.921Z,20.30
2017-07-11T22:18:52.298Z,24.80
2017-07-11T22:21:19.598Z,27.00
2017-07-11T22:23:46.923Z,22.70
2017-07-11T22:26:14.262Z,21.17
2017-07-11T22:28:41.585Z,23.47
2017-07-11T22:31:08.903Z,21.37
2017-07-11T22:33:36.419Z,22.97
2017-07-11T22:36:03.760Z,23.50
2017-07-11T22:38:31.090Z,25.00
2017-07-11T22:40:58.455Z,24.60
2017-07-11T22:43:25.776Z,21.87
2017-07-11T22:45:53.130Z,27.10
2017-07-11T22:48:20.465Z,24.50
2017-07-11T22:50:48.104Z,25.30
2017-07-11T22:53:15.447Z,21.10
2017-07-11T22:55:42.798Z,19.87
2017-07-11T22:58:10.149Z,21.60
2017-07-11T23:00:37.518Z,19.87
2017-07-11T23:03:04.895Z,20.40
2017-07-11T23:05:32.218Z,18.87
2017-07-11T23:07:59.543Z,18.80
2017-07-11T23:10:26.846Z,19.30
2017-07-11T23:12:54.183Z,26.97
2017-07-11T23:15:21.501Z,18.80
2017-07-11T23:17:48.854Z,17.67
2017-07-11T23:20:16.559Z,21.80
2017-07-11T23:22:44.275Z,17.67
2017-07-11T23:25:11.596Z,19.27
2017-07-11T23:27:39.007Z,19.70
2017-07-11T23:30:06.622Z,19.63
2017-07-11T23:32:34.256Z,18.50
2017-07-11T23:35:01.597Z,17.70
2017-07-11T23:37:28.925Z,18.77
2017-07-11T23:39:56.275Z,17.70
2017-07-11T23:42:23.614Z,23.43
2017-07-11T23:44:50.970Z,16.30
2017-07-11T23:47:21.766Z,17.00
2017-07-11T23:49:49.143Z,17.63
2017-07-11T23:52:16.470Z,19.77
2017-07-11T23:54:43.811Z,16.60
2017-07-11T23:57:11.355Z,18.90
2017-07-11T23:59:39.005Z,20.93
